Airfield :
LOGIN :

Register | Disclaimer

   EN    FR    IT 

 










Legend :    VFR   Marginal VFR   IFR   Intensive IFR   Very Intensive IFR
Visi :
Ceiling :
>= 8 km
>= 3000ft
5 to 8 km
1000 to 3000 ft
1500m to 5 km
500 to 1000 ft
800 to 1500m
200 to 500 ft
< 800m
< 200 ft
Symbols :   Thunderstorms  Fog  Heavy snow  Heavy precipitations  Wind > 20 kt
SIGMETs :     Misc.  Thunderstorms  Icing  Turbulence  Mountain Waves  Volcanic Ashes






- Airport Elevation : 650 ft
- IATA code : ZJI


LSZL - Locarno

CURRENT METAR :
  • 281820Z AUTO VRB02KT 9999NDV FEW035 BKN110 13/05 Q1012 RMK

EXPIRED METARs :
  • 281750Z AUTO VRB01KT 9999NDV SCT026 SCT034 15/06 Q1012 RMK
  • 281720Z AUTO 00000KT 9999NDV SCT024 17/05 Q1012 RMK
  • 281650Z AUTO 26004KT 230V310 9999NDV FEW028 17/06 Q1011 RMK
  • 281620Z AUTO 26005KT 230V290 9999NDV FEW028 17/07 Q1011 RMK
  • 281550Z AUTO 24005KT 9999NDV FEW110 17/06 Q1011 RMK

Expired Forecast.



MET'MAP, your aeronautical weather chart ! - Copyright ORBIFLY December 2007 - Disclaimer

ORBIFLY MET'MAP TEAM :

Programming & Development : Alexandra Zaïnal
Concept & original design : Baudouin d'Aumeries
Assistance for programming : Marc-Olivier Méhu
Technical & hardware support : Manuel Goepfert

Contact : metmap@orbifly.com




SOURCES & CREDITS :

   NOAA